地図

経路データ

SID SEASON NUMBER BASIN SUBBASIN NAME ISO_TIME NATURE LAT LON WMO_WIND WMO_PRES WMO_AGENCY TRACK_TYPE DIST2LAND LANDFALL IFLAG USA_AGENCY USA_ATCF_ID USA_LAT USA_LON USA_RECORD USA_STATUS USA_WIND USA_PRES USA_SSHS USA_R34_NE USA_R34_SE USA_R34_SW USA_R34_NW USA_R50_NE USA_R50_SE USA_R50_SW USA_R50_NW USA_R64_NE USA_R64_SE USA_R64_SW USA_R64_NW USA_POCI USA_ROCI USA_RMW USA_EYE TOKYO_LAT TOKYO_LON TOKYO_GRADE TOKYO_WIND TOKYO_PRES TOKYO_R50_DIR TOKYO_R50_LONG TOKYO_R50_SHORT TOKYO_R30_DIR TOKYO_R30_LONG TOKYO_R30_SHORT TOKYO_LAND CMA_LAT CMA_LON CMA_CAT CMA_WIND CMA_PRES HKO_LAT HKO_LON HKO_CAT HKO_WIND HKO_PRES NEWDELHI_LAT NEWDELHI_LON NEWDELHI_GRADE NEWDELHI_WIND NEWDELHI_PRES NEWDELHI_CI NEWDELHI_DP NEWDELHI_POCI REUNION_LAT REUNION_LON REUNION_TYPE REUNION_WIND REUNION_PRES REUNION_TNUM REUNION_CI REUNION_RMW REUNION_R34_NE REUNION_R34_SE REUNION_R34_SW REUNION_R34_NW REUNION_R50_NE REUNION_R50_SE REUNION_R50_SW REUNION_R50_NW REUNION_R64_NE REUNION_R64_SE REUNION_R64_SW REUNION_R64_NW BOM_LAT BOM_LON BOM_TYPE BOM_WIND BOM_PRES BOM_TNUM BOM_CI BOM_RMW BOM_R34_NE BOM_R34_SE BOM_R34_SW BOM_R34_NW BOM_R50_NE BOM_R50_SE BOM_R50_SW BOM_R50_NW BOM_R64_NE BOM_R64_SE BOM_R64_SW BOM_R64_NW BOM_ROCI BOM_POCI BOM_EYE BOM_POS_METHOD BOM_PRES_METHOD NADI_LAT NADI_LON NADI_CAT NADI_WIND NADI_PRES WELLINGTON_LAT WELLINGTON_LON WELLINGTON_WIND WELLINGTON_PRES DS824_LAT DS824_LON DS824_STAGE DS824_WIND DS824_PRES TD9636_LAT TD9636_LON TD9636_STAGE TD9636_WIND TD9636_PRES TD9635_LAT TD9635_LON TD9635_WIND TD9635_PRES TD9635_ROCI NEUMANN_LAT NEUMANN_LON NEUMANN_CLASS NEUMANN_WIND NEUMANN_PRES MLC_LAT MLC_LON MLC_CLASS MLC_WIND MLC_PRES USA_GUST BOM_GUST BOM_GUST_PER REUNION_GUST REUNION_GUST_PER USA_SEAHGT USA_SEARAD_NE USA_SEARAD_SE USA_SEARAD_SW USA_SEARAD_NW STORM_SPEED STORM_DIR
1930108N09132 1930 20 WP MM NOT_NAMED 1930-04-18 10:00:00 NR 9.30000 131.500 main 568 500 __________O___ -1 9.30000 131.500 7 20 284
1930108N09132 1930 20 WP MM NOT_NAMED 1930-04-18 12:00:00 NR 9.45500 130.848 main 500 408 __________P___ -1 9.45500 130.848 7 20 284
1930108N09132 1930 20 WP MM NOT_NAMED 1930-04-18 15:00:00 NR 9.68451 129.876 main 408 306 __________P___ -1 9.68451 129.876 7 20 283
1930108N09132 1930 20 WP MM NOT_NAMED 1930-04-18 18:00:00 NR 9.90933 128.923 main 306 221 __________P___ -1 9.90933 128.923 7 19 283
1930108N09132 1930 20 WP MM NOT_NAMED 1930-04-18 21:00:00 NR 10.1284 127.999 main 221 199 __________P___ -1 10.1284 127.999 7 19 284
1930108N09132 1930 20 WP MM NOT_NAMED 1930-04-18 22:00:00 NR 10.2000 127.700 main 199 150 __________O___ -1 10.2000 127.700 3 18 284
1930108N09132 1930 20 WP MM NOT_NAMED 1930-04-19 00:00:00 NR 10.3409 127.116 main 150 78 __________P___ -1 10.3409 127.116 3 17 284
1930108N09132 1930 20 WP MM NOT_NAMED 1930-04-19 03:00:00 NR 10.5467 126.272 main 78 33 __________P___ -1 10.5467 126.272 3 17 284
1930108N09132 1930 20 WP MM NOT_NAMED 1930-04-19 06:00:00 NR 10.7456 125.457 main 34 0 __________P___ -1 10.7456 125.457 3 16 284
1930108N09132 1930 20 WP MM NOT_NAMED 1930-04-19 09:00:00 NR 10.9376 124.662 main 0 0 __________P___ -1 10.9376 124.662 3 16 284
1930108N09132 1930 20 WP MM NOT_NAMED 1930-04-19 10:00:00 NR 11.0000 124.400 main 0 0 __________O___ -1 11.0000 124.400 4 16 283
1930108N09132 1930 20 WP MM NOT_NAMED 1930-04-19 12:00:00 NR 11.1194 123.861 main 10 0 __________P___ -1 11.1194 123.861 4 16 283
1930108N09132 1930 20 WP MM NOT_NAMED 1930-04-19 15:00:00 NR 11.2924 123.066 main 0 0 __________P___ -1 11.2924 123.066 4 16 283
1930108N09132 1930 20 WP MM NOT_NAMED 1930-04-19 18:00:00 NR 11.4637 122.290 main 0 0 __________P___ -1 11.4637 122.290 4 15 283
1930108N09132 1930 20 WP MM NOT_NAMED 1930-04-19 21:00:00 NR 11.6394 121.542 main 39 34 __________P___ -1 11.6394 121.542 4 15 284
1930108N09132 1930 20 WP MM NOT_NAMED 1930-04-19 22:00:00 NR 11.7000 121.300 main 55 44 __________O___ -1 11.7000 121.300 4 15 284
1930108N09132 1930 20 WP MM NOT_NAMED 1930-04-20 00:00:00 NR 11.8219 120.819 main 55 54 __________P___ -1 11.8219 120.819 4 14 285
1930108N09132 1930 20 WP MM NOT_NAMED 1930-04-20 03:00:00 NR 12.0113 120.123 main 95 89 __________P___ -1 12.0113 120.123 4 14 286
1930108N09132 1930 20 WP MM NOT_NAMED 1930-04-20 06:00:00 NR 12.2114 119.454 main 100 101 __________P___ -1 12.2114 119.454 4 14 288
1930108N09132 1930 20 WP MM NOT_NAMED 1930-04-20 09:00:00 NR 12.4252 118.810 main 144 144 __________P___ -1 12.4252 118.810 4 13 289
1930108N09132 1930 20 WP MM NOT_NAMED 1930-04-20 10:00:00 NR 12.5000 118.600 main 166 166 __________O___ -1 12.5000 118.600 4 13 291
1930108N09132 1930 20 WP MM NOT_NAMED 1930-04-20 12:00:00 NR 12.6573 118.188 main 211 211 __________P___ -1 12.6573 118.188 4 13 292
1930108N09132 1930 20 WP MM NOT_NAMED 1930-04-20 15:00:00 NR 12.9063 117.589 main 273 273 __________P___ -1 12.9063 117.589 4 13 294
1930108N09132 1930 20 WP MM NOT_NAMED 1930-04-20 18:00:00 NR 13.1628 116.999 main 343 343 __________P___ -1 13.1628 116.999 4 13 294
1930108N09132 1930 20 WP MM NOT_NAMED 1930-04-20 21:00:00 NR 13.4172 116.403 main 408 408 __________P___ -1 13.4172 116.403 4 13 293
1930108N09132 1930 20 WP MM NOT_NAMED 1930-04-20 22:00:00 NR 13.5000 116.200 main 432 432 __________O___ -1 13.5000 116.200 7 13 292
1930108N09132 1930 20 WP MM NOT_NAMED 1930-04-21 00:00:00 NR 13.6581 115.775 main 479 489 __________P___ -1 13.6581 115.775 7 13 290
1930108N09132 1930 20 WP MM NOT_NAMED 1930-04-21 03:00:00 NR 13.8893 115.126 main 543 543 __________P___ -1 13.8893 115.126 7 13 290
1930108N09132 1930 20 WP MM NOT_NAMED 1930-04-21 06:00:00 NR 14.1130 114.469 main 557 487 __________P___ -1 14.1130 114.469 7 13 289
1930108N09132 1930 20 WP MM NOT_NAMED 1930-04-21 09:00:00 NR 14.3295 113.816 main 487 467 __________P___ -1 14.3295 113.816 7 13 289
1930108N09132 1930 20 WP MM NOT_NAMED 1930-04-21 10:00:00 NR 14.4000 113.600 main 467 425 __________O___ -1 14.4000 113.600 7 13 288
1930108N09132 1930 20 WP MM NOT_NAMED 1930-04-21 12:00:00 NR 14.5360 113.177 main 425 356 __________P___ -1 14.5360 113.177 7 13 288
1930108N09132 1930 20 WP MM NOT_NAMED 1930-04-21 15:00:00 NR 14.7339 112.550 main 356 301 __________P___ -1 14.7339 112.550 7 13 288
1930108N09132 1930 20 WP MM NOT_NAMED 1930-04-21 18:00:00 NR 14.9302 111.927 main 301 240 __________P___ -1 14.9302 111.927 7 13 288
1930108N09132 1930 20 WP MM NOT_NAMED 1930-04-21 21:00:00 NR 15.1310 111.307 main 240 222 __________P___ -1 15.1310 111.307 7 13 289
1930108N09132 1930 20 WP MM NOT_NAMED 1930-04-21 22:00:00 NR 15.2000 111.100 main 222 184 __________O___ -1 15.2000 111.100 7 13 289
1930108N09132 1930 20 WP MM NOT_NAMED 1930-04-22 00:00:00 NR 15.3414 110.675 main 184 126 __________P___ -1 15.3414 110.675 7 13 289
1930108N09132 1930 20 WP MM NOT_NAMED 1930-04-22 03:00:00 NR 15.5601 110.038 main 126 85 __________P___ -1 15.5601 110.038 7 13 290
1930108N09132 1930 20 WP MM NOT_NAMED 1930-04-22 06:00:00 NR 15.7864 109.409 main 85 48 __________P___ -1 15.7864 109.409 7 13 291
1930108N09132 1930 20 WP MM NOT_NAMED 1930-04-22 09:00:00 NR 16.0203 108.798 main 48 33 __________P___ -1 16.0203 108.798 7 13 292
1930108N09132 1930 20 WP MM NOT_NAMED 1930-04-22 10:00:00 NR 16.1000 108.600 main 33 10 __________O___ -1 16.1000 108.600 7 12 293
1930108N09132 1930 20 WP MM NOT_NAMED 1930-04-22 12:00:00 NR 16.2618 108.213 main 15 0 __________P___ -1 16.2618 108.213 7 12 294
1930108N09132 1930 20 WP MM NOT_NAMED 1930-04-22 15:00:00 NR 16.5097 107.654 main 10 0 __________P___ -1 16.5097 107.654 7 12 295
1930108N09132 1930 20 WP MM NOT_NAMED 1930-04-22 18:00:00 NR 16.7616 107.111 main 0 0 __________P___ -1 16.7616 107.111 7 12 296
1930108N09132 1930 20 WP MM NOT_NAMED 1930-04-22 21:00:00 NR 17.0154 106.577 main 0 0 __________P___ -1 17.0154 106.577 7 11 296
1930108N09132 1930 20 WP MM NOT_NAMED 1930-04-22 22:00:00 NR 17.1000 106.400 main 0 __________O___ -1 17.1000 106.400 7 11 296

デジタル台風データ・検索

IBTrACS Databaseについて

本データベースは、米国NOAAが公開する1842年以降の世界の熱帯低気圧のベストトラックデータアーカイブInternational Best Track Archive for Climate Stewardship (IBTrACS)を、ウェブで閲覧しやすい形式に変換したものです。

最終更新日:2021-10-08